sensor_id;sensor_type;location;lat;lon;timestamp;P1;durP1;ratioP1;P2;durP2;ratioP2
79399;SDS011;68856;45.586;10.264;2023-04-06T00:02:17;6.57;;;5.90;;
79399;SDS011;68856;45.586;10.264;2023-04-06T00:04:43;8.23;;;6.40;;
79399;SDS011;68856;45.586;10.264;2023-04-06T00:07:10;8.13;;;6.10;;
79399;SDS011;68856;45.586;10.264;2023-04-06T00:09:36;5.53;;;5.03;;
79399;SDS011;68856;45.586;10.264;2023-04-06T00:12:02;9.55;;;6.22;;
79399;SDS011;68856;45.586;10.264;2023-04-06T00:14:29;7.00;;;6.00;;
79399;SDS011;68856;45.586;10.264;2023-04-06T00:16:56;6.72;;;5.72;;
79399;SDS011;68856;45.586;10.264;2023-04-06T00:19:22;8.00;;;5.97;;
79399;SDS011;68856;45.586;10.264;2023-04-06T00:21:48;10.27;;;6.55;;
79399;SDS011;68856;45.586;10.264;2023-04-06T00:24:14;9.10;;;6.30;;
79399;SDS011;68856;45.586;10.264;2023-04-06T00:26:41;8.13;;;6.30;;
79399;SDS011;68856;45.586;10.264;2023-04-06T00:29:07;6.80;;;6.13;;
79399;SDS011;68856;45.586;10.264;2023-04-06T00:31:33;6.18;;;5.57;;
79399;SDS011;68856;45.586;10.264;2023-04-06T00:33:59;7.72;;;5.80;;
79399;SDS011;68856;45.586;10.264;2023-04-06T00:36:26;7.88;;;6.07;;
79399;SDS011;68856;45.586;10.264;2023-04-06T00:38:52;7.35;;;6.03;;
79399;SDS011;68856;45.586;10.264;2023-04-06T00:41:18;7.60;;;6.80;;
79399;SDS011;68856;45.586;10.264;2023-04-06T00:43:45;7.43;;;6.70;;
79399;SDS011;68856;45.586;10.264;2023-04-06T00:46:12;8.27;;;6.43;;
79399;SDS011;68856;45.586;10.264;2023-04-06T00:48:38;6.53;;;5.80;;
79399;SDS011;68856;45.586;10.264;2023-04-06T00:51:05;7.25;;;5.93;;
79399;SDS011;68856;45.586;10.264;2023-04-06T00:53:32;8.57;;;6.13;;
79399;SDS011;68856;45.586;10.264;2023-04-06T00:55:58;8.73;;;6.63;;
79399;SDS011;68856;45.586;10.264;2023-04-06T00:58:24;8.52;;;6.35;;
79399;SDS011;68856;45.586;10.264;2023-04-06T01:00:51;8.02;;;6.13;;
79399;SDS011;68856;45.586;10.264;2023-04-06T01:03:17;8.15;;;5.93;;
79399;SDS011;68856;45.586;10.264;2023-04-06T01:05:43;9.55;;;6.45;;
79399;SDS011;68856;45.586;10.264;2023-04-06T01:08:10;8.52;;;6.50;;
79399;SDS011;68856;45.586;10.264;2023-04-06T01:10:36;7.20;;;6.50;;
79399;SDS011;68856;45.586;10.264;2023-04-06T01:13:02;6.47;;;5.60;;
79399;SDS011;68856;45.586;10.264;2023-04-06T01:15:29;8.35;;;6.22;;
79399;SDS011;68856;45.586;10.264;2023-04-06T01:17:57;9.88;;;5.93;;
79399;SDS011;68856;45.586;10.264;2023-04-06T01:20:23;8.02;;;6.25;;
79399;SDS011;68856;45.586;10.264;2023-04-06T01:22:49;8.20;;;5.60;;
79399;SDS011;68856;45.586;10.264;2023-04-06T01:25:15;6.85;;;5.85;;
79399;SDS011;68856;45.586;10.264;2023-04-06T01:27:42;6.85;;;5.90;;
79399;SDS011;68856;45.586;10.264;2023-04-06T01:30:08;6.88;;;6.05;;
79399;SDS011;68856;45.586;10.264;2023-04-06T01:32:35;7.10;;;6.00;;
79399;SDS011;68856;45.586;10.264;2023-04-06T01:35:01;6.20;;;5.55;;
79399;SDS011;68856;45.586;10.264;2023-04-06T01:37:28;8.43;;;5.70;;
79399;SDS011;68856;45.586;10.264;2023-04-06T01:39:57;10.93;;;6.70;;
79399;SDS011;68856;45.586;10.264;2023-04-06T01:42:23;10.15;;;5.72;;
79399;SDS011;68856;45.586;10.264;2023-04-06T01:44:51;7.07;;;5.82;;
79399;SDS011;68856;45.586;10.264;2023-04-06T01:47:17;8.77;;;6.13;;
79399;SDS011;68856;45.586;10.264;2023-04-06T01:49:43;9.90;;;6.85;;
79399;SDS011;68856;45.586;10.264;2023-04-06T01:52:10;7.32;;;5.90;;
79399;SDS011;68856;45.586;10.264;2023-04-06T01:54:36;7.78;;;5.32;;
79399;SDS011;68856;45.586;10.264;2023-04-06T01:57:02;6.85;;;5.78;;
79399;SDS011;68856;45.586;10.264;2023-04-06T01:59:28;6.95;;;5.60;;
79399;SDS011;68856;45.586;10.264;2023-04-06T02:01:55;8.90;;;6.10;;
79399;SDS011;68856;45.586;10.264;2023-04-06T02:04:21;8.90;;;5.97;;
79399;SDS011;68856;45.586;10.264;2023-04-06T02:06:47;7.85;;;6.22;;
79399;SDS011;68856;45.586;10.264;2023-04-06T02:09:14;6.57;;;5.40;;
79399;SDS011;68856;45.586;10.264;2023-04-06T02:11:40;8.82;;;6.10;;
79399;SDS011;68856;45.586;10.264;2023-04-06T02:14:07;7.20;;;5.43;;
79399;SDS011;68856;45.586;10.264;2023-04-06T02:16:33;7.20;;;6.10;;
79399;SDS011;68856;45.586;10.264;2023-04-06T02:18:59;8.60;;;6.30;;
79399;SDS011;68856;45.586;10.264;2023-04-06T02:21:25;8.05;;;5.80;;
79399;SDS011;68856;45.586;10.264;2023-04-06T02:23:52;13.38;;;5.65;;
79399;SDS011;68856;45.586;10.264;2023-04-06T02:26:18;6.68;;;5.63;;
79399;SDS011;68856;45.586;10.264;2023-04-06T02:28:45;6.10;;;5.18;;
79399;SDS011;68856;45.586;10.264;2023-04-06T02:31:11;7.38;;;5.90;;
79399;SDS011;68856;45.586;10.264;2023-04-06T02:33:39;8.27;;;5.35;;
79399;SDS011;68856;45.586;10.264;2023-04-06T02:36:06;9.77;;;6.18;;
79399;SDS011;68856;45.586;10.264;2023-04-06T02:38:32;10.43;;;6.22;;
79399;SDS011;68856;45.586;10.264;2023-04-06T02:40:58;9.52;;;6.18;;
79399;SDS011;68856;45.586;10.264;2023-04-06T02:43:25;8.57;;;6.18;;
79399;SDS011;68856;45.586;10.264;2023-04-06T02:45:51;7.55;;;6.43;;
79399;SDS011;68856;45.586;10.264;2023-04-06T02:48:17;9.15;;;5.95;;
79399;SDS011;68856;45.586;10.264;2023-04-06T02:50:44;7.22;;;6.22;;
79399;SDS011;68856;45.586;10.264;2023-04-06T02:53:10;12.13;;;6.80;;
79399;SDS011;68856;45.586;10.264;2023-04-06T02:55:36;11.27;;;7.03;;
79399;SDS011;68856;45.586;10.264;2023-04-06T02:58:03;12.48;;;6.55;;
79399;SDS011;68856;45.586;10.264;2023-04-06T03:00:29;8.50;;;6.15;;
79399;SDS011;68856;45.586;10.264;2023-04-06T03:02:55;13.18;;;6.72;;
79399;SDS011;68856;45.586;10.264;2023-04-06T03:05:22;6.53;;;5.47;;
79399;SDS011;68856;45.586;10.264;2023-04-06T03:07:48;8.02;;;5.85;;
79399;SDS011;68856;45.586;10.264;2023-04-06T03:10:14;8.70;;;6.80;;
79399;SDS011;68856;45.586;10.264;2023-04-06T03:12:41;8.55;;;6.00;;
79399;SDS011;68856;45.586;10.264;2023-04-06T03:15:07;7.82;;;5.88;;
79399;SDS011;68856;45.586;10.264;2023-04-06T03:17:34;5.95;;;5.20;;
79399;SDS011;68856;45.586;10.264;2023-04-06T03:20:00;8.13;;;6.05;;
79399;SDS011;68856;45.586;10.264;2023-04-06T03:22:28;7.35;;;5.53;;
79399;SDS011;68856;45.586;10.264;2023-04-06T03:24:54;8.57;;;6.00;;
79399;SDS011;68856;45.586;10.264;2023-04-06T03:27:21;9.30;;;5.88;;
79399;SDS011;68856;45.586;10.264;2023-04-06T03:29:47;8.45;;;6.25;;
79399;SDS011;68856;45.586;10.264;2023-04-06T03:32:13;10.32;;;6.20;;
79399;SDS011;68856;45.586;10.264;2023-04-06T03:34:40;12.23;;;7.00;;
79399;SDS011;68856;45.586;10.264;2023-04-06T03:37:06;7.13;;;5.80;;
79399;SDS011;68856;45.586;10.264;2023-04-06T03:39:32;12.45;;;6.05;;
79399;SDS011;68856;45.586;10.264;2023-04-06T03:41:58;8.93;;;5.85;;
79399;SDS011;68856;45.586;10.264;2023-04-06T03:44:25;6.78;;;5.82;;
79399;SDS011;68856;45.586;10.264;2023-04-06T03:46:51;9.00;;;5.78;;
79399;SDS011;68856;45.586;10.264;2023-04-06T03:49:17;10.05;;;6.35;;
79399;SDS011;68856;45.586;10.264;2023-04-06T03:51:43;7.95;;;5.85;;
79399;SDS011;68856;45.586;10.264;2023-04-06T03:54:10;8.32;;;6.95;;
79399;SDS011;68856;45.586;10.264;2023-04-06T03:56:36;7.38;;;5.93;;
79399;SDS011;68856;45.586;10.264;2023-04-06T04:01:33;8.02;;;6.15;;
79399;SDS011;68856;45.586;10.264;2023-04-06T04:03:59;7.45;;;5.88;;
79399;SDS011;68856;45.586;10.264;2023-04-06T04:06:26;9.23;;;5.80;;
79399;SDS011;68856;45.586;10.264;2023-04-06T04:08:52;9.95;;;6.70;;
79399;SDS011;68856;45.586;10.264;2023-04-06T04:11:18;8.35;;;6.38;;
79399;SDS011;68856;45.586;10.264;2023-04-06T04:13:44;9.48;;;6.30;;
79399;SDS011;68856;45.586;10.264;2023-04-06T04:16:11;7.95;;;6.60;;
79399;SDS011;68856;45.586;10.264;2023-04-06T04:18:37;9.48;;;6.38;;
79399;SDS011;68856;45.586;10.264;2023-04-06T04:21:03;9.05;;;5.90;;
79399;SDS011;68856;45.586;10.264;2023-04-06T04:23:30;10.60;;;5.80;;
79399;SDS011;68856;45.586;10.264;2023-04-06T04:25:56;8.80;;;6.03;;
79399;SDS011;68856;45.586;10.264;2023-04-06T04:28:22;7.00;;;6.30;;
79399;SDS011;68856;45.586;10.264;2023-04-06T04:30:48;7.97;;;5.78;;
79399;SDS011;68856;45.586;10.264;2023-04-06T04:33:15;9.40;;;5.93;;
79399;SDS011;68856;45.586;10.264;2023-04-06T04:35:41;8.98;;;6.57;;
79399;SDS011;68856;45.586;10.264;2023-04-06T04:38:07;10.35;;;6.15;;
79399;SDS011;68856;45.586;10.264;2023-04-06T04:40:34;10.02;;;6.15;;
79399;SDS011;68856;45.586;10.264;2023-04-06T04:43:00;15.82;;;5.88;;
79399;SDS011;68856;45.586;10.264;2023-04-06T04:45:26;9.13;;;6.32;;
79399;SDS011;68856;45.586;10.264;2023-04-06T04:47:52;10.00;;;6.70;;
79399;SDS011;68856;45.586;10.264;2023-04-06T04:50:19;8.52;;;6.07;;
79399;SDS011;68856;45.586;10.264;2023-04-06T04:52:45;8.20;;;6.30;;
79399;SDS011;68856;45.586;10.264;2023-04-06T04:55:11;7.57;;;5.60;;
79399;SDS011;68856;45.586;10.264;2023-04-06T04:57:38;9.23;;;5.95;;
79399;SDS011;68856;45.586;10.264;2023-04-06T05:00:04;8.75;;;6.80;;
79399;SDS011;68856;45.586;10.264;2023-04-06T05:02:31;7.80;;;5.97;;
79399;SDS011;68856;45.586;10.264;2023-04-06T05:04:57;9.52;;;6.97;;
79399;SDS011;68856;45.586;10.264;2023-04-06T05:07:23;12.75;;;7.15;;
79399;SDS011;68856;45.586;10.264;2023-04-06T05:09:50;8.45;;;6.07;;
79399;SDS011;68856;45.586;10.264;2023-04-06T05:12:16;8.07;;;6.05;;
79399;SDS011;68856;45.586;10.264;2023-04-06T05:14:43;8.80;;;6.13;;
79399;SDS011;68856;45.586;10.264;2023-04-06T05:17:10;10.73;;;6.57;;
79399;SDS011;68856;45.586;10.264;2023-04-06T05:19:36;9.45;;;6.20;;
79399;SDS011;68856;45.586;10.264;2023-04-06T05:22:03;7.25;;;6.00;;
79399;SDS011;68856;45.586;10.264;2023-04-06T05:24:29;8.75;;;5.93;;
79399;SDS011;68856;45.586;10.264;2023-04-06T05:26:56;6.68;;;6.03;;
79399;SDS011;68856;45.586;10.264;2023-04-06T05:29:22;8.98;;;6.10;;
79399;SDS011;68856;45.586;10.264;2023-04-06T05:31:48;8.52;;;6.38;;
79399;SDS011;68856;45.586;10.264;2023-04-06T05:34:16;9.98;;;6.72;;
79399;SDS011;68856;45.586;10.264;2023-04-06T05:36:43;8.93;;;6.20;;
79399;SDS011;68856;45.586;10.264;2023-04-06T05:39:09;9.57;;;6.85;;
79399;SDS011;68856;45.586;10.264;2023-04-06T05:41:37;12.52;;;7.38;;
79399;SDS011;68856;45.586;10.264;2023-04-06T05:44:03;9.30;;;6.22;;
79399;SDS011;68856;45.586;10.264;2023-04-06T05:46:30;7.88;;;6.18;;
79399;SDS011;68856;45.586;10.264;2023-04-06T05:48:56;8.18;;;6.18;;
79399;SDS011;68856;45.586;10.264;2023-04-06T05:51:22;7.68;;;6.20;;
79399;SDS011;68856;45.586;10.264;2023-04-06T05:53:49;8.43;;;6.47;;
79399;SDS011;68856;45.586;10.264;2023-04-06T05:56:15;9.48;;;6.10;;
79399;SDS011;68856;45.586;10.264;2023-04-06T05:58:41;10.95;;;6.53;;
79399;SDS011;68856;45.586;10.264;2023-04-06T06:01:07;12.68;;;7.93;;
79399;SDS011;68856;45.586;10.264;2023-04-06T06:03:34;13.30;;;7.97;;
79399;SDS011;68856;45.586;10.264;2023-04-06T06:06:01;11.82;;;8.40;;
79399;SDS011;68856;45.586;10.264;2023-04-06T06:08:28;17.25;;;8.80;;
79399;SDS011;68856;45.586;10.264;2023-04-06T06:10:55;14.73;;;8.43;;
79399;SDS011;68856;45.586;10.264;2023-04-06T06:13:21;15.88;;;7.85;;
79399;SDS011;68856;45.586;10.264;2023-04-06T06:15:48;12.43;;;8.52;;
79399;SDS011;68856;45.586;10.264;2023-04-06T06:18:15;10.55;;;7.60;;
79399;SDS011;68856;45.586;10.264;2023-04-06T06:20:41;14.50;;;7.55;;
79399;SDS011;68856;45.586;10.264;2023-04-06T06:23:08;21.60;;;9.38;;
79399;SDS011;68856;45.586;10.264;2023-04-06T06:25:34;72.72;;;11.60;;
79399;SDS011;68856;45.586;10.264;2023-04-06T06:28:00;24.95;;;8.95;;
79399;SDS011;68856;45.586;10.264;2023-04-06T06:30:27;17.75;;;8.82;;
79399;SDS011;68856;45.586;10.264;2023-04-06T06:32:53;23.88;;;10.68;;
79399;SDS011;68856;45.586;10.264;2023-04-06T06:35:19;17.95;;;8.35;;
79399;SDS011;68856;45.586;10.264;2023-04-06T06:37:46;18.90;;;9.60;;
79399;SDS011;68856;45.586;10.264;2023-04-06T06:40:12;17.27;;;9.50;;
79399;SDS011;68856;45.586;10.264;2023-04-06T06:42:40;13.10;;;8.57;;
79399;SDS011;68856;45.586;10.264;2023-04-06T06:45:07;18.02;;;9.38;;
79399;SDS011;68856;45.586;10.264;2023-04-06T06:47:34;14.95;;;10.13;;
79399;SDS011;68856;45.586;10.264;2023-04-06T06:50:00;12.73;;;9.40;;
79399;SDS011;68856;45.586;10.264;2023-04-06T06:52:28;16.23;;;8.73;;
79399;SDS011;68856;45.586;10.264;2023-04-06T06:54:54;16.65;;;8.65;;
79399;SDS011;68856;45.586;10.264;2023-04-06T06:57:21;11.02;;;7.43;;
79399;SDS011;68856;45.586;10.264;2023-04-06T06:59:47;16.55;;;7.93;;
79399;SDS011;68856;45.586;10.264;2023-04-06T07:02:14;16.15;;;8.07;;
79399;SDS011;68856;45.586;10.264;2023-04-06T07:04:40;12.13;;;8.02;;
79399;SDS011;68856;45.586;10.264;2023-04-06T07:07:06;13.88;;;6.68;;
79399;SDS011;68856;45.586;10.264;2023-04-06T07:09:33;15.27;;;6.57;;
79399;SDS011;68856;45.586;10.264;2023-04-06T07:12:00;8.57;;;6.43;;
79399;SDS011;68856;45.586;10.264;2023-04-06T07:14:27;16.30;;;8.02;;
79399;SDS011;68856;45.586;10.264;2023-04-06T07:16:53;16.02;;;7.45;;
79399;SDS011;68856;45.586;10.264;2023-04-06T07:19:19;11.90;;;6.63;;
79399;SDS011;68856;45.586;10.264;2023-04-06T07:21:46;10.35;;;6.25;;
79399;SDS011;68856;45.586;10.264;2023-04-06T07:24:14;9.43;;;5.65;;
79399;SDS011;68856;45.586;10.264;2023-04-06T07:26:41;9.38;;;5.75;;
79399;SDS011;68856;45.586;10.264;2023-04-06T07:29:07;8.45;;;5.50;;
79399;SDS011;68856;45.586;10.264;2023-04-06T07:31:34;9.85;;;5.78;;
79399;SDS011;68856;45.586;10.264;2023-04-06T07:34:01;15.88;;;6.32;;
79399;SDS011;68856;45.586;10.264;2023-04-06T07:36:27;10.80;;;6.25;;
79399;SDS011;68856;45.586;10.264;2023-04-06T07:38:53;11.18;;;6.10;;
79399;SDS011;68856;45.586;10.264;2023-04-06T07:41:20;8.88;;;5.80;;
79399;SDS011;68856;45.586;10.264;2023-04-06T07:43:46;12.70;;;5.45;;
79399;SDS011;68856;45.586;10.264;2023-04-06T07:46:13;7.40;;;5.05;;
79399;SDS011;68856;45.586;10.264;2023-04-06T07:48:39;7.65;;;5.43;;
79399;SDS011;68856;45.586;10.264;2023-04-06T07:51:06;7.18;;;4.63;;
79399;SDS011;68856;45.586;10.264;2023-04-06T07:53:33;7.72;;;4.90;;
79399;SDS011;68856;45.586;10.264;2023-04-06T07:56:00;8.80;;;5.18;;
79399;SDS011;68856;45.586;10.264;2023-04-06T07:58:26;8.25;;;5.43;;
79399;SDS011;68856;45.586;10.264;2023-04-06T08:00:52;8.23;;;4.85;;
79399;SDS011;68856;45.586;10.264;2023-04-06T08:03:20;5.40;;;4.68;;
79399;SDS011;68856;45.586;10.264;2023-04-06T08:05:50;7.10;;;3.30;;
79399;SDS011;68856;45.586;10.264;2023-04-06T08:08:17;7.15;;;4.03;;
79399;SDS011;68856;45.586;10.264;2023-04-06T08:10:46;5.20;;;3.60;;
79399;SDS011;68856;45.586;10.264;2023-04-06T08:13:13;5.72;;;4.35;;
79399;SDS011;68856;45.586;10.264;2023-04-06T08:15:40;8.38;;;3.90;;
79399;SDS011;68856;45.586;10.264;2023-04-06T08:18:07;5.38;;;4.40;;
79399;SDS011;68856;45.586;10.264;2023-04-06T08:20:34;5.10;;;3.80;;
79399;SDS011;68856;45.586;10.264;2023-04-06T08:23:00;5.00;;;3.80;;
79399;SDS011;68856;45.586;10.264;2023-04-06T08:25:27;6.10;;;3.75;;
79399;SDS011;68856;45.586;10.264;2023-04-06T08:27:53;7.47;;;4.43;;
79399;SDS011;68856;45.586;10.264;2023-04-06T08:30:19;4.90;;;4.43;;
79399;SDS011;68856;45.586;10.264;2023-04-06T08:32:46;6.80;;;4.40;;
79399;SDS011;68856;45.586;10.264;2023-04-06T08:35:12;4.47;;;4.00;;
79399;SDS011;68856;45.586;10.264;2023-04-06T08:37:39;5.88;;;4.50;;
79399;SDS011;68856;45.586;10.264;2023-04-06T08:40:06;4.97;;;4.47;;
79399;SDS011;68856;45.586;10.264;2023-04-06T08:42:33;7.82;;;4.63;;
79399;SDS011;68856;45.586;10.264;2023-04-06T08:45:04;7.82;;;4.30;;
79399;SDS011;68856;45.586;10.264;2023-04-06T08:47:31;5.20;;;3.85;;
79399;SDS011;68856;45.586;10.264;2023-04-06T08:49:59;5.10;;;4.20;;
79399;SDS011;68856;45.586;10.264;2023-04-06T08:52:29;5.50;;;3.70;;
79399;SDS011;68856;45.586;10.264;2023-04-06T08:54:58;6.72;;;3.95;;
79399;SDS011;68856;45.586;10.264;2023-04-06T08:57:25;3.88;;;3.47;;
79399;SDS011;68856;45.586;10.264;2023-04-06T08:59:52;6.25;;;4.35;;
79399;SDS011;68856;45.586;10.264;2023-04-06T09:02:20;6.85;;;3.95;;
79399;SDS011;68856;45.586;10.264;2023-04-06T09:04:47;5.78;;;4.35;;
79399;SDS011;68856;45.586;10.264;2023-04-06T09:07:17;7.85;;;4.55;;
79399;SDS011;68856;45.586;10.264;2023-04-06T09:09:43;7.57;;;4.55;;
79399;SDS011;68856;45.586;10.264;2023-04-06T09:12:25;7.55;;;5.32;;
79399;SDS011;68856;45.586;10.264;2023-04-06T09:14:53;8.20;;;4.93;;
79399;SDS011;68856;45.586;10.264;2023-04-06T09:17:21;12.00;;;5.20;;
79399;SDS011;68856;45.586;10.264;2023-04-06T09:19:49;7.93;;;5.68;;
79399;SDS011;68856;45.586;10.264;2023-04-06T09:22:16;7.13;;;6.18;;
79399;SDS011;68856;45.586;10.264;2023-04-06T09:24:44;9.82;;;6.82;;
79399;SDS011;68856;45.586;10.264;2023-04-06T09:27:13;8.02;;;6.95;;
79399;SDS011;68856;45.586;10.264;2023-04-06T09:29:44;9.15;;;6.72;;
79399;SDS011;68856;45.586;10.264;2023-04-06T09:32:11;9.15;;;6.90;;
79399;SDS011;68856;45.586;10.264;2023-04-06T09:34:41;8.95;;;7.03;;
79399;SDS011;68856;45.586;10.264;2023-04-06T09:37:14;9.93;;;7.10;;
79399;SDS011;68856;45.586;10.264;2023-04-06T09:39:41;8.25;;;6.47;;
79399;SDS011;68856;45.586;10.264;2023-04-06T09:42:08;10.43;;;6.97;;
79399;SDS011;68856;45.586;10.264;2023-04-06T09:44:34;8.02;;;6.57;;
79399;SDS011;68856;45.586;10.264;2023-04-06T09:47:01;10.23;;;6.65;;
79399;SDS011;68856;45.586;10.264;2023-04-06T09:49:31;9.98;;;7.10;;
79399;SDS011;68856;45.586;10.264;2023-04-06T09:51:59;8.55;;;6.72;;
79399;SDS011;68856;45.586;10.264;2023-04-06T09:54:28;8.45;;;7.03;;
79399;SDS011;68856;45.586;10.264;2023-04-06T09:56:58;11.75;;;7.10;;
79399;SDS011;68856;45.586;10.264;2023-04-06T10:04:56;11.80;;;6.85;;
79399;SDS011;68856;45.586;10.264;2023-04-06T10:07:27;11.98;;;8.15;;
79399;SDS011;68856;45.586;10.264;2023-04-06T10:09:54;9.43;;;6.97;;
79399;SDS011;68856;45.586;10.264;2023-04-06T10:12:21;8.77;;;6.78;;
79399;SDS011;68856;45.586;10.264;2023-04-06T10:14:47;10.15;;;7.88;;
79399;SDS011;68856;45.586;10.264;2023-04-06T10:17:14;14.63;;;7.25;;
79399;SDS011;68856;45.586;10.264;2023-04-06T10:22:26;8.45;;;6.75;;
79399;SDS011;68856;45.586;10.264;2023-04-06T10:25:07;15.35;;;7.38;;
79399;SDS011;68856;45.586;10.264;2023-04-06T10:27:34;10.60;;;7.35;;
79399;SDS011;68856;45.586;10.264;2023-04-06T10:30:01;11.48;;;8.27;;
79399;SDS011;68856;45.586;10.264;2023-04-06T10:32:36;8.25;;;6.97;;
79399;SDS011;68856;45.586;10.264;2023-04-06T10:35:06;11.43;;;7.70;;
79399;SDS011;68856;45.586;10.264;2023-04-06T10:37:51;10.80;;;7.90;;
79399;SDS011;68856;45.586;10.264;2023-04-06T10:40:19;10.82;;;7.13;;
79399;SDS011;68856;45.586;10.264;2023-04-06T10:42:53;11.82;;;7.72;;
79399;SDS011;68856;45.586;10.264;2023-04-06T10:45:21;11.30;;;7.63;;
79399;SDS011;68856;45.586;10.264;2023-04-06T10:47:49;11.93;;;8.38;;
79399;SDS011;68856;45.586;10.264;2023-04-06T10:50:17;8.25;;;7.30;;
79399;SDS011;68856;45.586;10.264;2023-04-06T10:52:45;10.15;;;7.68;;
79399;SDS011;68856;45.586;10.264;2023-04-06T10:55:12;9.55;;;8.25;;
79399;SDS011;68856;45.586;10.264;2023-04-06T10:57:40;9.02;;;8.02;;
79399;SDS011;68856;45.586;10.264;2023-04-06T11:00:07;9.10;;;7.63;;
79399;SDS011;68856;45.586;10.264;2023-04-06T11:02:34;11.23;;;8.10;;
79399;SDS011;68856;45.586;10.264;2023-04-06T11:05:04;13.90;;;8.50;;
79399;SDS011;68856;45.586;10.264;2023-04-06T11:07:31;14.30;;;8.85;;
79399;SDS011;68856;45.586;10.264;2023-04-06T11:09:57;9.20;;;8.23;;
79399;SDS011;68856;45.586;10.264;2023-04-06T11:12:24;14.55;;;9.05;;
79399;SDS011;68856;45.586;10.264;2023-04-06T11:14:55;12.45;;;9.18;;
79399;SDS011;68856;45.586;10.264;2023-04-06T11:17:29;9.18;;;8.27;;
79399;SDS011;68856;45.586;10.264;2023-04-06T11:19:57;12.07;;;9.23;;
79399;SDS011;68856;45.586;10.264;2023-04-06T11:22:24;10.13;;;9.02;;
79399;SDS011;68856;45.586;10.264;2023-04-06T11:24:51;13.70;;;9.82;;
79399;SDS011;68856;45.586;10.264;2023-04-06T11:27:18;9.48;;;8.48;;
79399;SDS011;68856;45.586;10.264;2023-04-06T11:29:45;11.13;;;9.80;;
79399;SDS011;68856;45.586;10.264;2023-04-06T11:32:19;10.18;;;8.98;;
79399;SDS011;68856;45.586;10.264;2023-04-06T11:34:47;11.00;;;9.13;;
79399;SDS011;68856;45.586;10.264;2023-04-06T11:37:13;10.60;;;8.82;;
79399;SDS011;68856;45.586;10.264;2023-04-06T11:39:42;10.73;;;9.40;;
79399;SDS011;68856;45.586;10.264;2023-04-06T11:42:25;13.15;;;9.95;;
79399;SDS011;68856;45.586;10.264;2023-04-06T11:44:54;10.10;;;9.07;;
79399;SDS011;68856;45.586;10.264;2023-04-06T11:47:28;12.77;;;9.40;;
79399;SDS011;68856;45.586;10.264;2023-04-06T11:49:56;10.30;;;9.27;;
79399;SDS011;68856;45.586;10.264;2023-04-06T11:52:32;13.35;;;9.60;;
79399;SDS011;68856;45.586;10.264;2023-04-06T11:54:58;12.35;;;9.18;;
79399;SDS011;68856;45.586;10.264;2023-04-06T11:57:34;11.57;;;9.27;;
79399;SDS011;68856;45.586;10.264;2023-04-06T12:00:01;9.90;;;8.80;;
79399;SDS011;68856;45.586;10.264;2023-04-06T12:02:27;10.98;;;8.68;;
79399;SDS011;68856;45.586;10.264;2023-04-06T12:04:54;10.98;;;8.45;;
79399;SDS011;68856;45.586;10.264;2023-04-06T12:07:20;10.82;;;8.73;;
79399;SDS011;68856;45.586;10.264;2023-04-06T12:09:46;12.63;;;8.70;;
79399;SDS011;68856;45.586;10.264;2023-04-06T12:12:12;10.00;;;8.95;;
79399;SDS011;68856;45.586;10.264;2023-04-06T12:14:39;10.02;;;9.13;;
79399;SDS011;68856;45.586;10.264;2023-04-06T12:17:05;10.40;;;8.73;;
79399;SDS011;68856;45.586;10.264;2023-04-06T12:19:31;11.45;;;8.73;;
79399;SDS011;68856;45.586;10.264;2023-04-06T12:21:58;12.75;;;9.73;;
79399;SDS011;68856;45.586;10.264;2023-04-06T12:24:24;11.10;;;8.55;;
79399;SDS011;68856;45.586;10.264;2023-04-06T12:26:50;10.10;;;9.05;;
79399;SDS011;68856;45.586;10.264;2023-04-06T12:29:17;10.15;;;8.63;;
79399;SDS011;68856;45.586;10.264;2023-04-06T12:31:44;11.48;;;9.00;;
79399;SDS011;68856;45.586;10.264;2023-04-06T12:34:10;9.73;;;8.73;;
79399;SDS011;68856;45.586;10.264;2023-04-06T12:36:37;11.45;;;9.65;;
79399;SDS011;68856;45.586;10.264;2023-04-06T12:39:04;10.10;;;9.05;;
79399;SDS011;68856;45.586;10.264;2023-04-06T12:41:30;12.70;;;9.43;;
79399;SDS011;68856;45.586;10.264;2023-04-06T12:43:57;11.80;;;9.80;;
79399;SDS011;68856;45.586;10.264;2023-04-06T12:46:27;12.02;;;9.52;;
79399;SDS011;68856;45.586;10.264;2023-04-06T12:48:55;9.90;;;9.00;;
79399;SDS011;68856;45.586;10.264;2023-04-06T12:51:24;11.20;;;10.05;;
79399;SDS011;68856;45.586;10.264;2023-04-06T12:53:52;10.77;;;9.75;;
79399;SDS011;68856;45.586;10.264;2023-04-06T12:56:19;11.55;;;9.43;;
79399;SDS011;68856;45.586;10.264;2023-04-06T12:58:50;13.68;;;9.57;;
79399;SDS011;68856;45.586;10.264;2023-04-06T13:01:17;12.20;;;9.57;;
79399;SDS011;68856;45.586;10.264;2023-04-06T13:03:43;11.82;;;9.55;;
79399;SDS011;68856;45.586;10.264;2023-04-06T13:06:10;10.00;;;9.00;;
79399;SDS011;68856;45.586;10.264;2023-04-06T13:08:37;11.38;;;9.93;;
79399;SDS011;68856;45.586;10.264;2023-04-06T13:11:04;10.60;;;9.50;;
79399;SDS011;68856;45.586;10.264;2023-04-06T13:13:34;13.18;;;9.80;;
79399;SDS011;68856;45.586;10.264;2023-04-06T13:16:01;14.38;;;9.60;;
79399;SDS011;68856;45.586;10.264;2023-04-06T13:18:32;10.10;;;9.10;;
79399;SDS011;68856;45.586;10.264;2023-04-06T13:20:59;10.50;;;9.50;;
79399;SDS011;68856;45.586;10.264;2023-04-06T13:23:26;11.55;;;10.27;;
79399;SDS011;68856;45.586;10.264;2023-04-06T13:26:05;10.32;;;9.30;;
79399;SDS011;68856;45.586;10.264;2023-04-06T13:28:33;10.85;;;9.73;;
79399;SDS011;68856;45.586;10.264;2023-04-06T13:31:00;10.73;;;9.63;;
79399;SDS011;68856;45.586;10.264;2023-04-06T13:33:27;13.65;;;10.18;;
79399;SDS011;68856;45.586;10.264;2023-04-06T13:35:55;13.48;;;9.73;;
79399;SDS011;68856;45.586;10.264;2023-04-06T13:38:22;11.07;;;9.65;;
79399;SDS011;68856;45.586;10.264;2023-04-06T13:40:51;10.85;;;9.52;;
79399;SDS011;68856;45.586;10.264;2023-04-06T13:43:17;16.30;;;10.95;;
79399;SDS011;68856;45.586;10.264;2023-04-06T13:45:50;13.10;;;9.98;;
79399;SDS011;68856;45.586;10.264;2023-04-06T13:48:23;11.98;;;9.88;;
79399;SDS011;68856;45.586;10.264;2023-04-06T13:50:50;12.10;;;10.25;;
79399;SDS011;68856;45.586;10.264;2023-04-06T13:53:17;11.35;;;10.23;;
79399;SDS011;68856;45.586;10.264;2023-04-06T13:55:43;12.00;;;10.88;;
79399;SDS011;68856;45.586;10.264;2023-04-06T13:58:17;11.90;;;10.68;;
79399;SDS011;68856;45.586;10.264;2023-04-06T14:00:43;11.75;;;10.65;;
79399;SDS011;68856;45.586;10.264;2023-04-06T14:03:09;12.00;;;10.80;;
79399;SDS011;68856;45.586;10.264;2023-04-06T14:05:35;11.73;;;10.63;;
79399;SDS011;68856;45.586;10.264;2023-04-06T14:08:02;14.13;;;11.60;;
79399;SDS011;68856;45.586;10.264;2023-04-06T14:10:28;13.10;;;11.90;;
79399;SDS011;68856;45.586;10.264;2023-04-06T14:12:54;14.23;;;12.18;;
79399;SDS011;68856;45.586;10.264;2023-04-06T14:15:21;14.48;;;12.95;;
79399;SDS011;68856;45.586;10.264;2023-04-06T14:17:48;15.82;;;14.27;;
79399;SDS011;68856;45.586;10.264;2023-04-06T14:20:16;13.27;;;11.95;;
79399;SDS011;68856;45.586;10.264;2023-04-06T14:22:42;16.25;;;14.85;;
79399;SDS011;68856;45.586;10.264;2023-04-06T14:25:08;22.67;;;21.00;;
79399;SDS011;68856;45.586;10.264;2023-04-06T14:27:36;21.27;;;19.63;;
79399;SDS011;68856;45.586;10.264;2023-04-06T14:30:02;21.58;;;19.95;;
79399;SDS011;68856;45.586;10.264;2023-04-06T14:32:29;22.73;;;21.23;;
79399;SDS011;68856;45.586;10.264;2023-04-06T14:34:55;20.90;;;18.95;;
79399;SDS011;68856;45.586;10.264;2023-04-06T14:37:21;23.15;;;21.48;;
79399;SDS011;68856;45.586;10.264;2023-04-06T14:39:47;30.25;;;27.63;;